sensor_id;sensor_type;location;lat;lon;timestamp;P1;durP1;ratioP1;P2;durP2;ratioP2
75787;SDS011;64406;50.024;14.492;2023-08-08T00:00:07;2.28;;;1.75;;
75787;SDS011;64406;50.024;14.492;2023-08-08T00:02:54;2.50;;;1.73;;
75787;SDS011;64406;50.024;14.492;2023-08-08T00:05:20;3.30;;;1.88;;
75787;SDS011;64406;50.024;14.492;2023-08-08T00:07:46;3.55;;;1.90;;
75787;SDS011;64406;50.024;14.492;2023-08-08T00:10:11;3.20;;;1.65;;
75787;SDS011;64406;50.024;14.492;2023-08-08T00:12:37;3.08;;;1.80;;
75787;SDS011;64406;50.024;14.492;2023-08-08T00:15:03;2.17;;;1.70;;
75787;SDS011;64406;50.024;14.492;2023-08-08T00:17:29;6.28;;;2.00;;
75787;SDS011;64406;50.024;14.492;2023-08-08T00:19:54;3.65;;;1.92;;
75787;SDS011;64406;50.024;14.492;2023-08-08T00:22:20;5.30;;;2.08;;
75787;SDS011;64406;50.024;14.492;2023-08-08T00:24:45;3.03;;;2.03;;
75787;SDS011;64406;50.024;14.492;2023-08-08T00:27:11;3.83;;;1.92;;
75787;SDS011;64406;50.024;14.492;2023-08-08T00:29:37;3.80;;;1.80;;
75787;SDS011;64406;50.024;14.492;2023-08-08T00:32:02;2.92;;;1.77;;
75787;SDS011;64406;50.024;14.492;2023-08-08T00:34:28;3.88;;;1.80;;
75787;SDS011;64406;50.024;14.492;2023-08-08T00:36:54;3.95;;;2.03;;
75787;SDS011;64406;50.024;14.492;2023-08-08T00:39:19;5.07;;;2.13;;
75787;SDS011;64406;50.024;14.492;2023-08-08T00:41:45;3.20;;;2.00;;
75787;SDS011;64406;50.024;14.492;2023-08-08T00:44:10;8.45;;;2.38;;
75787;SDS011;64406;50.024;14.492;2023-08-08T00:46:36;7.95;;;2.10;;
75787;SDS011;64406;50.024;14.492;2023-08-08T00:49:01;3.53;;;1.85;;
75787;SDS011;64406;50.024;14.492;2023-08-08T00:51:27;4.28;;;2.15;;
75787;SDS011;64406;50.024;14.492;2023-08-08T00:53:53;4.28;;;1.60;;
75787;SDS011;64406;50.024;14.492;2023-08-08T00:56:19;5.45;;;1.92;;
75787;SDS011;64406;50.024;14.492;2023-08-08T00:58:45;2.08;;;1.77;;
75787;SDS011;64406;50.024;14.492;2023-08-08T01:01:12;3.50;;;2.20;;
75787;SDS011;64406;50.024;14.492;2023-08-08T01:03:37;5.20;;;2.22;;
75787;SDS011;64406;50.024;14.492;2023-08-08T01:06:05;5.32;;;2.03;;
75787;SDS011;64406;50.024;14.492;2023-08-08T01:09:40;5.25;;;2.13;;
75787;SDS011;64406;50.024;14.492;2023-08-08T01:11:42;2.47;;;1.67;;
75787;SDS011;64406;50.024;14.492;2023-08-08T01:14:09;3.20;;;1.90;;
75787;SDS011;64406;50.024;14.492;2023-08-08T01:16:36;5.45;;;2.00;;
75787;SDS011;64406;50.024;14.492;2023-08-08T01:19:02;2.50;;;1.63;;
75787;SDS011;64406;50.024;14.492;2023-08-08T01:21:32;3.67;;;2.15;;
75787;SDS011;64406;50.024;14.492;2023-08-08T01:24:16;2.80;;;1.83;;
75787;SDS011;64406;50.024;14.492;2023-08-08T01:26:44;5.68;;;2.58;;
75787;SDS011;64406;50.024;14.492;2023-08-08T01:29:10;2.45;;;1.67;;
75787;SDS011;64406;50.024;14.492;2023-08-08T01:31:36;3.15;;;1.88;;
75787;SDS011;64406;50.024;14.492;2023-08-08T01:34:02;4.78;;;2.08;;
75787;SDS011;64406;50.024;14.492;2023-08-08T01:36:32;7.07;;;2.45;;
75787;SDS011;64406;50.024;14.492;2023-08-08T01:39:04;3.80;;;2.15;;
75787;SDS011;64406;50.024;14.492;2023-08-08T01:41:34;3.58;;;2.58;;
75787;SDS011;64406;50.024;14.492;2023-08-08T01:44:04;3.65;;;2.10;;
75787;SDS011;64406;50.024;14.492;2023-08-08T01:46:31;4.18;;;2.10;;
75787;SDS011;64406;50.024;14.492;2023-08-08T01:48:58;3.58;;;1.98;;
75787;SDS011;64406;50.024;14.492;2023-08-08T01:51:25;2.65;;;1.88;;
75787;SDS011;64406;50.024;14.492;2023-08-08T01:53:51;3.65;;;1.92;;
75787;SDS011;64406;50.024;14.492;2023-08-08T01:56:17;3.63;;;2.28;;
75787;SDS011;64406;50.024;14.492;2023-08-08T01:58:43;3.95;;;1.98;;
75787;SDS011;64406;50.024;14.492;2023-08-08T02:01:09;3.97;;;2.20;;
75787;SDS011;64406;50.024;14.492;2023-08-08T02:03:34;2.97;;;2.20;;
75787;SDS011;64406;50.024;14.492;2023-08-08T02:06:00;5.18;;;2.55;;
75787;SDS011;64406;50.024;14.492;2023-08-08T02:08:25;3.17;;;1.95;;
75787;SDS011;64406;50.024;14.492;2023-08-08T02:10:51;5.07;;;2.30;;
75787;SDS011;64406;50.024;14.492;2023-08-08T02:13:16;4.95;;;2.17;;
75787;SDS011;64406;50.024;14.492;2023-08-08T02:15:42;7.10;;;2.40;;
75787;SDS011;64406;50.024;14.492;2023-08-08T02:18:07;4.68;;;2.17;;
75787;SDS011;64406;50.024;14.492;2023-08-08T02:20:35;3.03;;;2.22;;
75787;SDS011;64406;50.024;14.492;2023-08-08T02:23:00;5.05;;;1.70;;
75787;SDS011;64406;50.024;14.492;2023-08-08T02:25:26;5.30;;;2.25;;
75787;SDS011;64406;50.024;14.492;2023-08-08T02:27:52;6.72;;;2.20;;
75787;SDS011;64406;50.024;14.492;2023-08-08T02:30:17;4.10;;;2.10;;
75787;SDS011;64406;50.024;14.492;2023-08-08T02:32:43;3.78;;;2.65;;
75787;SDS011;64406;50.024;14.492;2023-08-08T02:35:08;7.30;;;2.70;;
75787;SDS011;64406;50.024;14.492;2023-08-08T02:37:34;3.67;;;2.25;;
75787;SDS011;64406;50.024;14.492;2023-08-08T02:40:00;4.72;;;2.45;;
75787;SDS011;64406;50.024;14.492;2023-08-08T02:42:25;5.82;;;2.38;;
75787;SDS011;64406;50.024;14.492;2023-08-08T02:44:51;2.45;;;2.10;;
75787;SDS011;64406;50.024;14.492;2023-08-08T02:47:16;4.55;;;2.45;;
75787;SDS011;64406;50.024;14.492;2023-08-08T02:49:42;2.85;;;1.88;;
75787;SDS011;64406;50.024;14.492;2023-08-08T02:52:07;5.22;;;2.25;;
75787;SDS011;64406;50.024;14.492;2023-08-08T02:54:33;4.57;;;2.63;;
75787;SDS011;64406;50.024;14.492;2023-08-08T02:56:59;3.17;;;1.98;;
75787;SDS011;64406;50.024;14.492;2023-08-08T02:59:24;7.65;;;2.78;;
75787;SDS011;64406;50.024;14.492;2023-08-08T03:01:50;7.78;;;2.45;;
75787;SDS011;64406;50.024;14.492;2023-08-08T03:04:16;5.22;;;2.33;;
75787;SDS011;64406;50.024;14.492;2023-08-08T03:06:41;2.28;;;1.92;;
75787;SDS011;64406;50.024;14.492;2023-08-08T03:09:07;3.15;;;1.77;;
75787;SDS011;64406;50.024;14.492;2023-08-08T03:11:32;3.63;;;1.75;;
75787;SDS011;64406;50.024;14.492;2023-08-08T03:13:58;2.47;;;1.67;;
75787;SDS011;64406;50.024;14.492;2023-08-08T03:16:24;3.50;;;2.00;;
75787;SDS011;64406;50.024;14.492;2023-08-08T03:18:49;4.07;;;1.70;;
75787;SDS011;64406;50.024;14.492;2023-08-08T03:21:15;3.65;;;1.60;;
75787;SDS011;64406;50.024;14.492;2023-08-08T03:23:40;2.60;;;1.70;;
75787;SDS011;64406;50.024;14.492;2023-08-08T03:26:06;4.07;;;2.53;;
75787;SDS011;64406;50.024;14.492;2023-08-08T03:28:32;4.47;;;2.15;;
75787;SDS011;64406;50.024;14.492;2023-08-08T03:30:57;4.95;;;1.70;;
75787;SDS011;64406;50.024;14.492;2023-08-08T03:33:23;3.53;;;1.98;;
75787;SDS011;64406;50.024;14.492;2023-08-08T03:35:48;5.82;;;2.00;;
75787;SDS011;64406;50.024;14.492;2023-08-08T03:38:14;6.10;;;1.80;;
75787;SDS011;64406;50.024;14.492;2023-08-08T03:40:40;3.85;;;2.05;;
75787;SDS011;64406;50.024;14.492;2023-08-08T03:43:05;3.92;;;1.80;;
75787;SDS011;64406;50.024;14.492;2023-08-08T03:45:31;3.25;;;2.00;;
75787;SDS011;64406;50.024;14.492;2023-08-08T03:47:56;4.22;;;2.33;;
75787;SDS011;64406;50.024;14.492;2023-08-08T03:50:22;2.13;;;1.85;;
75787;SDS011;64406;50.024;14.492;2023-08-08T03:52:48;4.20;;;1.40;;
75787;SDS011;64406;50.024;14.492;2023-08-08T03:55:13;2.67;;;1.67;;
75787;SDS011;64406;50.024;14.492;2023-08-08T03:57:39;3.05;;;1.65;;
75787;SDS011;64406;50.024;14.492;2023-08-08T04:00:04;3.53;;;1.75;;
75787;SDS011;64406;50.024;14.492;2023-08-08T04:02:33;4.28;;;1.52;;
75787;SDS011;64406;50.024;14.492;2023-08-08T04:04:59;2.97;;;2.00;;
75787;SDS011;64406;50.024;14.492;2023-08-08T04:07:24;6.47;;;1.77;;
75787;SDS011;64406;50.024;14.492;2023-08-08T04:09:51;6.97;;;2.10;;
75787;SDS011;64406;50.024;14.492;2023-08-08T04:12:17;5.03;;;1.80;;
75787;SDS011;64406;50.024;14.492;2023-08-08T04:14:42;2.65;;;2.05;;
75787;SDS011;64406;50.024;14.492;2023-08-08T04:17:08;3.47;;;2.35;;
75787;SDS011;64406;50.024;14.492;2023-08-08T04:19:33;4.00;;;1.73;;
75787;SDS011;64406;50.024;14.492;2023-08-08T04:21:59;4.32;;;1.83;;
75787;SDS011;64406;50.024;14.492;2023-08-08T04:24:24;3.50;;;2.03;;
75787;SDS011;64406;50.024;14.492;2023-08-08T04:26:50;2.38;;;1.73;;
75787;SDS011;64406;50.024;14.492;2023-08-08T04:29:16;2.92;;;1.70;;
75787;SDS011;64406;50.024;14.492;2023-08-08T04:31:41;3.38;;;1.65;;
75787;SDS011;64406;50.024;14.492;2023-08-08T04:34:07;3.03;;;1.60;;
75787;SDS011;64406;50.024;14.492;2023-08-08T04:36:32;2.72;;;1.80;;
75787;SDS011;64406;50.024;14.492;2023-08-08T04:38:58;3.42;;;1.83;;
75787;SDS011;64406;50.024;14.492;2023-08-08T04:41:24;3.15;;;2.05;;
75787;SDS011;64406;50.024;14.492;2023-08-08T04:43:49;2.90;;;1.77;;
75787;SDS011;64406;50.024;14.492;2023-08-08T04:46:15;2.33;;;1.85;;
75787;SDS011;64406;50.024;14.492;2023-08-08T04:48:40;1.92;;;1.70;;
75787;SDS011;64406;50.024;14.492;2023-08-08T04:51:06;3.78;;;1.88;;
75787;SDS011;64406;50.024;14.492;2023-08-08T04:53:33;4.25;;;1.75;;
75787;SDS011;64406;50.024;14.492;2023-08-08T04:55:59;2.17;;;1.90;;
75787;SDS011;64406;50.024;14.492;2023-08-08T04:58:24;2.42;;;1.90;;
75787;SDS011;64406;50.024;14.492;2023-08-08T05:00:50;3.08;;;1.85;;
75787;SDS011;64406;50.024;14.492;2023-08-08T05:03:16;2.03;;;1.60;;
75787;SDS011;64406;50.024;14.492;2023-08-08T05:05:42;3.30;;;1.85;;
75787;SDS011;64406;50.024;14.492;2023-08-08T05:08:10;3.65;;;2.03;;
75787;SDS011;64406;50.024;14.492;2023-08-08T05:10:36;4.55;;;1.77;;
75787;SDS011;64406;50.024;14.492;2023-08-08T05:13:02;3.63;;;1.60;;
75787;SDS011;64406;50.024;14.492;2023-08-08T05:15:28;1.67;;;1.30;;
75787;SDS011;64406;50.024;14.492;2023-08-08T05:17:53;2.35;;;1.85;;
75787;SDS011;64406;50.024;14.492;2023-08-08T05:20:20;2.40;;;1.63;;
75787;SDS011;64406;50.024;14.492;2023-08-08T05:22:47;2.72;;;1.70;;
75787;SDS011;64406;50.024;14.492;2023-08-08T05:25:13;6.82;;;2.22;;
75787;SDS011;64406;50.024;14.492;2023-08-08T05:27:38;3.17;;;1.58;;
75787;SDS011;64406;50.024;14.492;2023-08-08T05:30:04;1.83;;;1.35;;
75787;SDS011;64406;50.024;14.492;2023-08-08T05:32:31;2.80;;;1.70;;
75787;SDS011;64406;50.024;14.492;2023-08-08T05:34:56;2.50;;;1.75;;
75787;SDS011;64406;50.024;14.492;2023-08-08T05:37:23;3.65;;;1.98;;
75787;SDS011;64406;50.024;14.492;2023-08-08T05:39:49;2.10;;;1.70;;
75787;SDS011;64406;50.024;14.492;2023-08-08T05:42:15;4.63;;;3.33;;
75787;SDS011;64406;50.024;14.492;2023-08-08T05:44:40;3.65;;;1.80;;
75787;SDS011;64406;50.024;14.492;2023-08-08T05:47:09;4.82;;;2.17;;
75787;SDS011;64406;50.024;14.492;2023-08-08T05:49:35;4.00;;;1.83;;
75787;SDS011;64406;50.024;14.492;2023-08-08T05:52:01;2.63;;;1.60;;
75787;SDS011;64406;50.024;14.492;2023-08-08T05:54:27;3.03;;;1.60;;
75787;SDS011;64406;50.024;14.492;2023-08-08T05:56:53;3.28;;;2.10;;
75787;SDS011;64406;50.024;14.492;2023-08-08T05:59:19;2.60;;;1.63;;
75787;SDS011;64406;50.024;14.492;2023-08-08T06:01:45;2.67;;;1.60;;
75787;SDS011;64406;50.024;14.492;2023-08-08T06:04:11;4.55;;;2.05;;
75787;SDS011;64406;50.024;14.492;2023-08-08T06:06:38;4.05;;;1.90;;
75787;SDS011;64406;50.024;14.492;2023-08-08T06:09:03;2.30;;;1.80;;
75787;SDS011;64406;50.024;14.492;2023-08-08T06:11:29;2.88;;;2.00;;
75787;SDS011;64406;50.024;14.492;2023-08-08T06:13:55;2.80;;;1.90;;
75787;SDS011;64406;50.024;14.492;2023-08-08T06:16:20;3.10;;;1.85;;
75787;SDS011;64406;50.024;14.492;2023-08-08T06:18:47;2.65;;;1.58;;
75787;SDS011;64406;50.024;14.492;2023-08-08T06:21:12;2.33;;;1.60;;
75787;SDS011;64406;50.024;14.492;2023-08-08T06:23:38;4.93;;;2.40;;
75787;SDS011;64406;50.024;14.492;2023-08-08T06:26:04;1.95;;;1.67;;
75787;SDS011;64406;50.024;14.492;2023-08-08T06:28:30;3.45;;;1.55;;
75787;SDS011;64406;50.024;14.492;2023-08-08T06:30:57;1.42;;;1.33;;
75787;SDS011;64406;50.024;14.492;2023-08-08T06:33:23;5.07;;;2.10;;
75787;SDS011;64406;50.024;14.492;2023-08-08T06:35:49;1.98;;;1.70;;
75787;SDS011;64406;50.024;14.492;2023-08-08T06:38:15;3.33;;;2.00;;
75787;SDS011;64406;50.024;14.492;2023-08-08T06:40:40;3.67;;;2.00;;
75787;SDS011;64406;50.024;14.492;2023-08-08T06:43:06;1.75;;;1.50;;
75787;SDS011;64406;50.024;14.492;2023-08-08T06:45:31;2.38;;;1.40;;
75787;SDS011;64406;50.024;14.492;2023-08-08T06:47:57;6.45;;;2.20;;
75787;SDS011;64406;50.024;14.492;2023-08-08T06:50:23;2.97;;;2.10;;
75787;SDS011;64406;50.024;14.492;2023-08-08T06:52:50;2.47;;;1.70;;
75787;SDS011;64406;50.024;14.492;2023-08-08T06:55:15;3.72;;;1.90;;
75787;SDS011;64406;50.024;14.492;2023-08-08T06:57:41;5.18;;;2.13;;
75787;SDS011;64406;50.024;14.492;2023-08-08T07:00:07;1.95;;;1.40;;
75787;SDS011;64406;50.024;14.492;2023-08-08T07:02:34;3.55;;;2.15;;
75787;SDS011;64406;50.024;14.492;2023-08-08T07:05:00;2.40;;;1.83;;
75787;SDS011;64406;50.024;14.492;2023-08-08T07:07:26;3.10;;;1.80;;
75787;SDS011;64406;50.024;14.492;2023-08-08T07:09:51;2.97;;;1.80;;
75787;SDS011;64406;50.024;14.492;2023-08-08T07:12:17;3.03;;;2.00;;
75787;SDS011;64406;50.024;14.492;2023-08-08T07:14:42;1.85;;;1.50;;
75787;SDS011;64406;50.024;14.492;2023-08-08T07:17:08;4.03;;;2.25;;
75787;SDS011;64406;50.024;14.492;2023-08-08T07:19:35;4.25;;;2.45;;
75787;SDS011;64406;50.024;14.492;2023-08-08T07:22:01;2.70;;;2.03;;
75787;SDS011;64406;50.024;14.492;2023-08-08T07:24:27;1.65;;;1.55;;
75787;SDS011;64406;50.024;14.492;2023-08-08T07:26:57;2.03;;;1.80;;
75787;SDS011;64406;50.024;14.492;2023-08-08T07:29:24;3.45;;;1.75;;
75787;SDS011;64406;50.024;14.492;2023-08-08T07:31:51;2.13;;;1.80;;
75787;SDS011;64406;50.024;14.492;2023-08-08T07:34:18;3.72;;;1.95;;
75787;SDS011;64406;50.024;14.492;2023-08-08T07:36:44;2.58;;;1.75;;
75787;SDS011;64406;50.024;14.492;2023-08-08T07:39:09;2.65;;;1.85;;
75787;SDS011;64406;50.024;14.492;2023-08-08T07:41:36;5.05;;;2.10;;
75787;SDS011;64406;50.024;14.492;2023-08-08T07:44:02;2.60;;;2.03;;
75787;SDS011;64406;50.024;14.492;2023-08-08T07:46:27;2.65;;;1.80;;
75787;SDS011;64406;50.024;14.492;2023-08-08T07:48:53;2.60;;;1.75;;
75787;SDS011;64406;50.024;14.492;2023-08-08T07:51:19;2.35;;;1.92;;
75787;SDS011;64406;50.024;14.492;2023-08-08T07:53:44;4.65;;;2.05;;
75787;SDS011;64406;50.024;14.492;2023-08-08T07:56:10;4.85;;;2.25;;
75787;SDS011;64406;50.024;14.492;2023-08-08T07:58:35;2.83;;;1.52;;
75787;SDS011;64406;50.024;14.492;2023-08-08T08:01:01;2.80;;;1.70;;
75787;SDS011;64406;50.024;14.492;2023-08-08T08:03:27;2.95;;;1.70;;
75787;SDS011;64406;50.024;14.492;2023-08-08T08:05:53;4.45;;;1.98;;
75787;SDS011;64406;50.024;14.492;2023-08-08T08:08:18;2.05;;;1.63;;
75787;SDS011;64406;50.024;14.492;2023-08-08T08:10:44;2.35;;;1.90;;
75787;SDS011;64406;50.024;14.492;2023-08-08T08:13:11;3.40;;;1.83;;
75787;SDS011;64406;50.024;14.492;2023-08-08T08:15:37;2.42;;;1.40;;
75787;SDS011;64406;50.024;14.492;2023-08-08T08:18:03;3.50;;;1.70;;
75787;SDS011;64406;50.024;14.492;2023-08-08T08:20:29;2.15;;;1.55;;
75787;SDS011;64406;50.024;14.492;2023-08-08T08:22:55;4.60;;;1.92;;
75787;SDS011;64406;50.024;14.492;2023-08-08T08:25:20;3.03;;;1.33;;
75787;SDS011;64406;50.024;14.492;2023-08-08T08:27:46;2.90;;;1.75;;
75787;SDS011;64406;50.024;14.492;2023-08-08T08:30:12;2.13;;;1.55;;
75787;SDS011;64406;50.024;14.492;2023-08-08T08:32:41;2.17;;;1.35;;
75787;SDS011;64406;50.024;14.492;2023-08-08T08:35:09;1.42;;;1.33;;
75787;SDS011;64406;50.024;14.492;2023-08-08T08:37:34;2.40;;;1.63;;
75787;SDS011;64406;50.024;14.492;2023-08-08T08:40:00;2.75;;;1.35;;
75787;SDS011;64406;50.024;14.492;2023-08-08T08:42:26;2.47;;;1.30;;
75787;SDS011;64406;50.024;14.492;2023-08-08T08:44:57;2.85;;;1.40;;
75787;SDS011;64406;50.024;14.492;2023-08-08T08:47:23;1.38;;;1.27;;
75787;SDS011;64406;50.024;14.492;2023-08-08T08:49:51;3.55;;;1.42;;
75787;SDS011;64406;50.024;14.492;2023-08-08T08:52:17;2.28;;;1.42;;
75787;SDS011;64406;50.024;14.492;2023-08-08T08:54:43;2.65;;;1.25;;
75787;SDS011;64406;50.024;14.492;2023-08-08T08:57:09;1.55;;;1.35;;
75787;SDS011;64406;50.024;14.492;2023-08-08T08:59:35;2.00;;;1.40;;
75787;SDS011;64406;50.024;14.492;2023-08-08T09:02:00;1.83;;;1.25;;
75787;SDS011;64406;50.024;14.492;2023-08-08T09:04:28;1.50;;;1.20;;
75787;SDS011;64406;50.024;14.492;2023-08-08T09:06:54;2.08;;;1.40;;
75787;SDS011;64406;50.024;14.492;2023-08-08T09:09:20;1.48;;;1.20;;
75787;SDS011;64406;50.024;14.492;2023-08-08T09:11:50;2.38;;;1.35;;
75787;SDS011;64406;50.024;14.492;2023-08-08T09:14:23;1.15;;;0.90;;
75787;SDS011;64406;50.024;14.492;2023-08-08T09:16:50;2.42;;;1.20;;
75787;SDS011;64406;50.024;14.492;2023-08-08T09:19:18;1.52;;;1.40;;
75787;SDS011;64406;50.024;14.492;2023-08-08T09:21:45;1.58;;;1.10;;
75787;SDS011;64406;50.024;14.492;2023-08-08T09:24:12;1.27;;;1.10;;
75787;SDS011;64406;50.024;14.492;2023-08-08T09:26:38;1.30;;;1.02;;
75787;SDS011;64406;50.024;14.492;2023-08-08T09:29:04;1.13;;;0.95;;
75787;SDS011;64406;50.024;14.492;2023-08-08T09:31:30;2.55;;;1.20;;
75787;SDS011;64406;50.024;14.492;2023-08-08T09:34:00;2.08;;;1.38;;
75787;SDS011;64406;50.024;14.492;2023-08-08T09:36:26;2.80;;;1.38;;
75787;SDS011;64406;50.024;14.492;2023-08-08T09:38:53;2.90;;;1.45;;
75787;SDS011;64406;50.024;14.492;2023-08-08T09:41:20;2.20;;;1.27;;
75787;SDS011;64406;50.024;14.492;2023-08-08T09:43:49;3.83;;;1.13;;
75787;SDS011;64406;50.024;14.492;2023-08-08T09:46:18;2.13;;;1.08;;
75787;SDS011;64406;50.024;14.492;2023-08-08T09:48:44;1.35;;;1.05;;
75787;SDS011;64406;50.024;14.492;2023-08-08T09:51:10;1.67;;;1.10;;
75787;SDS011;64406;50.024;14.492;2023-08-08T09:53:36;1.80;;;1.20;;
75787;SDS011;64406;50.024;14.492;2023-08-08T09:56:03;1.85;;;1.20;;
75787;SDS011;64406;50.024;14.492;2023-08-08T09:58:30;1.50;;;1.27;;
75787;SDS011;64406;50.024;14.492;2023-08-08T10:00:56;1.58;;;1.30;;
75787;SDS011;64406;50.024;14.492;2023-08-08T10:03:22;2.72;;;1.38;;
75787;SDS011;64406;50.024;14.492;2023-08-08T10:05:48;2.17;;;0.95;;
75787;SDS011;64406;50.024;14.492;2023-08-08T10:08:14;1.42;;;1.10;;
75787;SDS011;64406;50.024;14.492;2023-08-08T10:10:41;4.32;;;1.30;;
75787;SDS011;64406;50.024;14.492;2023-08-08T10:13:22;1.42;;;1.23;;
75787;SDS011;64406;50.024;14.492;2023-08-08T10:15:49;2.58;;;1.00;;
75787;SDS011;64406;50.024;14.492;2023-08-08T10:18:17;1.40;;;1.20;;
75787;SDS011;64406;50.024;14.492;2023-08-08T10:20:49;2.72;;;1.35;;
75787;SDS011;64406;50.024;14.492;2023-08-08T10:23:16;1.88;;;1.10;;
75787;SDS011;64406;50.024;14.492;2023-08-08T10:25:45;4.03;;;1.20;;
75787;SDS011;64406;50.024;14.492;2023-08-08T10:28:13;2.55;;;1.42;;
75787;SDS011;64406;50.024;14.492;2023-08-08T10:33:20;1.48;;;1.20;;
75787;SDS011;64406;50.024;14.492;2023-08-08T10:36:05;2.08;;;1.10;;
75787;SDS011;64406;50.024;14.492;2023-08-08T10:38:39;1.48;;;1.02;;
75787;SDS011;64406;50.024;14.492;2023-08-08T10:41:08;3.50;;;1.30;;
75787;SDS011;64406;50.024;14.492;2023-08-08T10:43:47;1.33;;;1.20;;
75787;SDS011;64406;50.024;14.492;2023-08-08T10:46:31;1.52;;;1.10;;
75787;SDS011;64406;50.024;14.492;2023-08-08T10:49:01;1.35;;;0.98;;
75787;SDS011;64406;50.024;14.492;2023-08-08T10:51:41;1.45;;;1.20;;
75787;SDS011;64406;50.024;14.492;2023-08-08T10:54:19;2.13;;;1.08;;
75787;SDS011;64406;50.024;14.492;2023-08-08T10:56:52;1.80;;;1.00;;
75787;SDS011;64406;50.024;14.492;2023-08-08T10:59:25;1.10;;;1.00;;
75787;SDS011;64406;50.024;14.492;2023-08-08T11:02:01;1.83;;;1.10;;
75787;SDS011;64406;50.024;14.492;2023-08-08T11:04:28;1.70;;;1.00;;
75787;SDS011;64406;50.024;14.492;2023-08-08T11:06:55;2.05;;;1.05;;
75787;SDS011;64406;50.024;14.492;2023-08-08T11:09:22;1.90;;;0.80;;
75787;SDS011;64406;50.024;14.492;2023-08-08T11:11:48;3.22;;;1.33;;
75787;SDS011;64406;50.024;14.492;2023-08-08T11:16:44;2.35;;;1.40;;
75787;SDS011;64406;50.024;14.492;2023-08-08T11:19:11;1.45;;;1.00;;
75787;SDS011;64406;50.024;14.492;2023-08-08T11:21:39;1.48;;;1.10;;
75787;SDS011;64406;50.024;14.492;2023-08-08T11:24:07;1.83;;;1.33;;
75787;SDS011;64406;50.024;14.492;2023-08-08T11:26:34;1.40;;;1.00;;
75787;SDS011;64406;50.024;14.492;2023-08-08T11:29:01;1.83;;;1.10;;
75787;SDS011;64406;50.024;14.492;2023-08-08T11:31:28;1.23;;;0.95;;
75787;SDS011;64406;50.024;14.492;2023-08-08T11:33:55;2.45;;;1.10;;
75787;SDS011;64406;50.024;14.492;2023-08-08T11:36:22;1.92;;;1.10;;
75787;SDS011;64406;50.024;14.492;2023-08-08T11:38:49;1.65;;;0.90;;
75787;SDS011;64406;50.024;14.492;2023-08-08T11:41:16;1.50;;;1.08;;
75787;SDS011;64406;50.024;14.492;2023-08-08T11:43:45;2.13;;;1.10;;
75787;SDS011;64406;50.024;14.492;2023-08-08T11:46:14;1.15;;;1.00;;
75787;SDS011;64406;50.024;14.492;2023-08-08T11:48:40;3.33;;;1.00;;
75787;SDS011;64406;50.024;14.492;2023-08-08T11:51:07;4.47;;;0.93;;
75787;SDS011;64406;50.024;14.492;2023-08-08T11:53:34;1.00;;;0.80;;
75787;SDS011;64406;50.024;14.492;2023-08-08T11:56:03;1.45;;;1.10;;
75787;SDS011;64406;50.024;14.492;2023-08-08T11:58:29;1.35;;;1.02;;
75787;SDS011;64406;50.024;14.492;2023-08-08T12:00:56;1.15;;;0.90;;
75787;SDS011;64406;50.024;14.492;2023-08-08T12:03:24;2.53;;;1.08;;
75787;SDS011;64406;50.024;14.492;2023-08-08T12:05:50;1.70;;;1.10;;
75787;SDS011;64406;50.024;14.492;2023-08-08T12:08:19;1.33;;;0.98;;
75787;SDS011;64406;50.024;14.492;2023-08-08T12:10:50;1.45;;;1.20;;
75787;SDS011;64406;50.024;14.492;2023-08-08T12:13:22;1.52;;;1.10;;
75787;SDS011;64406;50.024;14.492;2023-08-08T12:15:48;1.20;;;1.05;;
75787;SDS011;64406;50.024;14.492;2023-08-08T12:18:18;3.33;;;1.13;;
75787;SDS011;64406;50.024;14.492;2023-08-08T12:20:44;2.13;;;1.20;;
75787;SDS011;64406;50.024;14.492;2023-08-08T12:23:11;1.52;;;1.20;;
75787;SDS011;64406;50.024;14.492;2023-08-08T12:25:37;3.42;;;1.13;;
75787;SDS011;64406;50.024;14.492;2023-08-08T12:28:04;0.95;;;0.85;;
75787;SDS011;64406;50.024;14.492;2023-08-08T12:30:30;1.08;;;0.90;;
75787;SDS011;64406;50.024;14.492;2023-08-08T12:32:56;2.17;;;1.25;;
75787;SDS011;64406;50.024;14.492;2023-08-08T12:35:22;1.85;;;0.98;;
75787;SDS011;64406;50.024;14.492;2023-08-08T12:37:48;1.88;;;1.10;;
75787;SDS011;64406;50.024;14.492;2023-08-08T12:40:14;1.67;;;1.10;;
75787;SDS011;64406;50.024;14.492;2023-08-08T12:42:39;3.75;;;1.17;;
75787;SDS011;64406;50.024;14.492;2023-08-08T12:45:05;1.38;;;0.90;;
75787;SDS011;64406;50.024;14.492;2023-08-08T12:47:32;1.75;;;1.30;;
75787;SDS011;64406;50.024;14.492;2023-08-08T12:49:57;1.98;;;1.10;;
75787;SDS011;64406;50.024;14.492;2023-08-08T12:52:23;1.30;;;1.00;;
75787;SDS011;64406;50.024;14.492;2023-08-08T12:54:49;2.53;;;1.25;;
75787;SDS011;64406;50.024;14.492;2023-08-08T12:57:14;2.67;;;1.23;;
75787;SDS011;64406;50.024;14.492;2023-08-08T12:59:40;1.40;;;1.00;;
75787;SDS011;64406;50.024;14.492;2023-08-08T13:02:06;2.42;;;1.08;;
75787;SDS011;64406;50.024;14.492;2023-08-08T13:04:32;1.38;;;1.20;;
75787;SDS011;64406;50.024;14.492;2023-08-08T13:06:57;1.73;;;1.17;;
75787;SDS011;64406;50.024;14.492;2023-08-08T13:09:23;1.77;;;1.27;;
75787;SDS011;64406;50.024;14.492;2023-08-08T13:11:48;3.38;;;1.00;;
75787;SDS011;64406;50.024;14.492;2023-08-08T13:14:14;1.58;;;1.13;;
75787;SDS011;64406;50.024;14.492;2023-08-08T13:16:40;2.13;;;1.02;;
75787;SDS011;64406;50.024;14.492;2023-08-08T13:19:05;2.03;;;1.27;;
75787;SDS011;64406;50.024;14.492;2023-08-08T13:21:31;1.35;;;1.13;;
75787;SDS011;64406;50.024;14.492;2023-08-08T13:23:57;5.25;;;1.25;;
75787;SDS011;64406;50.024;14.492;2023-08-08T13:26:23;1.73;;;1.00;;
75787;SDS011;64406;50.024;14.492;2023-08-08T13:28:49;1.80;;;1.42;;
75787;SDS011;64406;50.024;14.492;2023-08-08T13:31:15;1.30;;;1.20;;
75787;SDS011;64406;50.024;14.492;2023-08-08T13:33:41;1.63;;;1.17;;
75787;SDS011;64406;50.024;14.492;2023-08-08T13:36:07;2.47;;;1.23;;
75787;SDS011;64406;50.024;14.492;2023-08-08T13:38:33;1.35;;;1.20;;
75787;SDS011;64406;50.024;14.492;2023-08-08T13:41:02;1.45;;;1.13;;
75787;SDS011;64406;50.024;14.492;2023-08-08T13:43:29;1.20;;;1.10;;
75787;SDS011;64406;50.024;14.492;2023-08-08T13:45:57;1.10;;;1.00;;
75787;SDS011;64406;50.024;14.492;2023-08-08T13:48:22;1.40;;;1.10;;
75787;SDS011;64406;50.024;14.492;2023-08-08T13:50:49;1.70;;;1.20;;
75787;SDS011;64406;50.024;14.492;2023-08-08T13:53:15;2.67;;;1.42;;
75787;SDS011;64406;50.024;14.492;2023-08-08T13:55:41;2.70;;;1.13;;
75787;SDS011;64406;50.024;14.492;2023-08-08T13:58:09;1.95;;;1.38;;
75787;SDS011;64406;50.024;14.492;2023-08-08T14:00:35;1.38;;;1.15;;
75787;SDS011;64406;50.024;14.492;2023-08-08T14:03:01;2.30;;;1.50;;
75787;SDS011;64406;50.024;14.492;2023-08-08T14:05:27;1.50;;;1.17;;
75787;SDS011;64406;50.024;14.492;2023-08-08T14:07:54;1.63;;;1.10;;
75787;SDS011;64406;50.024;14.492;2023-08-08T14:10:20;6.75;;;1.30;;
75787;SDS011;64406;50.024;14.492;2023-08-08T14:12:45;2.20;;;1.40;;
75787;SDS011;64406;50.024;14.492;2023-08-08T14:15:11;2.85;;;0.90;;
75787;SDS011;64406;50.024;14.492;2023-08-08T14:17:37;4.43;;;1.48;;
75787;SDS011;64406;50.024;14.492;2023-08-08T14:20:03;1.88;;;1.05;;
75787;SDS011;64406;50.024;14.492;2023-08-08T14:22:30;1.70;;;1.23;;
75787;SDS011;64406;50.024;14.492;2023-08-08T14:24:56;2.97;;;1.27;;
75787;SDS011;64406;50.024;14.492;2023-08-08T14:27:22;2.42;;;1.13;;
75787;SDS011;64406;50.024;14.492;2023-08-08T14:29:48;5.03;;;1.63;;
75787;SDS011;64406;50.024;14.492;2023-08-08T14:32:13;1.13;;;1.02;;
75787;SDS011;64406;50.024;14.492;2023-08-08T14:34:39;2.22;;;1.15;;